Time;durP1;ratioP1;P1;durP2;ratioP2;P2;SDS_P1;SDS_P2;PMS_P1;PMS_P2;Temp;Humidity;BMP_temperature;BMP_pressure;BME280_temperature;BME280_humidity;BME280_pressure;Samples;Min_cycle;Max_cycle;Signal;HPM_P1;HPM_P2
2022/04/05 00:01:07;;;;;;;18.58;6.70;;;;;;;7.67;100.00;100683.78;5091275;28;20044;-75
2022/04/05 00:03:32;;;;;;;28.70;8.00;;;;;;;7.64;100.00;100679.56;5073634;28;20031;-76
2022/04/05 00:05:59;;;;;;;26.15;7.00;;;;;;;7.63;100.00;100690.28;5091168;28;20520;-76
2022/04/05 00:08:24;;;;;;;26.13;6.95;;;;;;;7.59;100.00;100695.81;5091926;28;20047;-75
2022/04/05 00:10:49;;;;;;;25.90;6.28;;;;;;;7.60;100.00;100688.75;5056409;28;20032;-78
2022/04/05 00:13:15;;;;;;;22.83;6.30;;;;;;;7.58;100.00;100688.00;5091539;28;20043;-75
2022/04/05 00:15:40;;;;;;;28.95;6.20;;;;;;;7.57;100.00;100689.00;5091735;28;20086;-75
2022/04/05 00:18:06;;;;;;;25.10;5.75;;;;;;;7.53;100.00;100684.91;5090870;28;20507;-76
2022/04/05 00:20:31;;;;;;;23.17;5.55;;;;;;;7.51;100.00;100684.16;5091737;28;20054;-74
2022/04/05 00:22:58;;;;;;;24.17;5.03;;;;;;;7.50;100.00;100695.75;5090953;28;20040;-74
2022/04/05 00:25:24;;;;;;;30.27;6.15;;;;;;;7.47;100.00;100702.09;5091495;28;20566;-74
2022/04/05 00:27:49;;;;;;;29.83;5.25;;;;;;;7.43;100.00;100695.38;5091464;28;20044;-76
2022/04/05 00:30:15;;;;;;;37.40;6.57;;;;;;;7.41;100.00;100695.50;5072414;28;20551;-76
2022/04/05 00:32:41;;;;;;;28.67;5.38;;;;;;;7.39;100.00;100694.78;5091269;28;20032;-75
2022/04/05 00:35:07;;;;;;;30.00;5.72;;;;;;;7.38;100.00;100689.59;5090300;28;20054;-75
2022/04/05 00:37:32;;;;;;;32.15;5.70;;;;;;;7.35;100.00;100695.97;5091214;28;20044;-75
2022/04/05 00:39:57;;;;;;;32.03;5.28;;;;;;;7.34;100.00;100693.47;5090086;28;20100;-75
2022/04/05 00:42:23;;;;;;;37.17;5.22;;;;;;;7.30;100.00;100690.22;5091083;28;20172;-75
2022/04/05 00:44:48;;;;;;;29.52;5.85;;;;;;;7.28;100.00;100692.13;5091066;28;20440;-75
2022/04/05 00:47:13;;;;;;;33.08;5.32;;;;;;;7.25;100.00;100697.66;5072000;28;20081;-75
2022/04/05 00:49:40;;;;;;;34.33;5.28;;;;;;;7.23;100.00;100691.66;5090605;28;20025;-76
2022/04/05 00:52:06;;;;;;;26.48;5.82;;;;;;;7.23;100.00;100696.97;5072256;28;20180;-76
2022/04/05 00:54:35;;;;;;;28.02;5.75;;;;;;;7.21;100.00;100693.56;5091035;28;20054;-75
2022/04/05 00:57:02;;;;;;;33.50;6.68;;;;;;;7.18;100.00;100693.81;5071930;28;20445;-76
2022/04/05 00:59:30;;;;;;;36.85;6.40;;;;;;;7.16;100.00;100690.47;5091008;28;20059;-74
2022/04/05 01:01:56;;;;;;;38.03;6.47;;;;;;;7.13;100.00;100696.00;5090914;28;20525;-79
2022/04/05 01:04:22;;;;;;;38.20;6.55;;;;;;;7.14;100.00;100702.97;5090372;28;20036;-76
2022/04/05 01:06:49;;;;;;;27.77;6.25;;;;;;;7.11;100.00;100706.69;5090831;28;20053;-76
2022/04/05 01:09:14;;;;;;;35.78;6.70;;;;;;;7.12;100.00;100705.75;5089918;28;20044;-75
2022/04/05 01:11:40;;;;;;;37.05;7.80;;;;;;;7.07;100.00;100711.38;5090708;28;20036;-76
2022/04/05 01:14:06;;;;;;;38.72;6.63;;;;;;;7.05;100.00;100709.81;5089892;28;20028;-76
2022/04/05 01:16:31;;;;;;;33.88;7.05;;;;;;;7.02;100.00;100710.91;5090562;28;20032;-76
2022/04/05 01:18:57;;;;;;;36.03;6.97;;;;;;;7.03;100.00;100706.44;5090256;28;20520;-78
2022/04/05 01:21:23;;;;;;;43.10;7.65;;;;;;;7.00;100.00;100704.91;5090293;28;20085;-75
2022/04/05 01:24:05;;;;;;;36.72;6.80;;;;;;;6.98;100.00;100711.25;5090587;28;20414;-76
2022/04/05 01:26:36;;;;;;;;;;;;;;;6.97;100.00;100709.56;5090826;28;20499;-76
2022/04/05 01:29:02;;;;;;;50.83;9.02;;;;;;;6.94;100.00;100712.44;5089811;28;19969;-75
2022/04/05 01:31:27;;;;;;;50.83;7.97;;;;;;;6.93;100.00;100708.97;5090254;28;20036;-75
2022/04/05 01:33:53;;;;;;;53.70;8.27;;;;;;;6.94;100.00;100710.66;5055137;28;20097;-75
2022/04/05 01:36:22;;;;;;;45.08;9.15;;;;;;;6.94;100.00;100707.16;5089951;28;20048;-76
2022/04/05 01:38:48;;;;;;;39.00;7.57;;;;;;;6.91;100.00;100704.75;5090052;28;20102;-76
2022/04/05 01:41:13;;;;;;;40.42;8.48;;;;;;;6.91;100.00;100704.75;5071375;28;20036;-76
2022/04/05 01:43:40;;;;;;;41.15;8.63;;;;;;;6.89;100.00;100705.69;5090384;28;20032;-76
2022/04/05 01:46:05;;;;;;;32.08;7.30;;;;;;;6.86;100.00;100700.66;5089392;28;20123;-77
2022/04/05 01:48:31;;;;;;;34.50;8.55;;;;;;;6.87;100.00;100698.88;5090122;28;20396;-75
2022/04/05 01:50:56;;;;;;;43.63;9.43;;;;;;;6.89;100.00;100697.78;5088800;28;20040;-75
2022/04/05 01:53:21;;;;;;;43.78;9.98;;;;;;;6.90;100.00;100693.34;5070858;28;20123;-77
2022/04/05 01:55:47;;;;;;;38.50;9.38;;;;;;;6.90;100.00;100690.69;5089850;28;20120;-77
2022/04/05 01:58:13;;;;;;;52.65;10.93;;;;;;;6.91;100.00;100695.00;5070580;28;20118;-76
2022/04/05 02:00:38;;;;;;;38.80;9.48;;;;;;;6.93;100.00;100685.16;5089359;28;20054;-77
2022/04/05 02:03:03;;;;;;;40.72;12.63;;;;;;;6.96;100.00;100694.69;5071190;28;20047;-79
2022/04/05 02:05:29;;;;;;;46.33;12.05;;;;;;;6.95;100.00;100688.53;5089298;28;20433;-76
2022/04/05 02:07:54;;;;;;;50.03;12.80;;;;;;;6.98;100.00;100685.63;5071339;28;20028;-76
2022/04/05 02:10:20;;;;;;;38.78;12.30;;;;;;;6.99;100.00;100683.84;5088790;28;20032;-76
2022/04/05 02:12:45;;;;;;;36.60;13.00;;;;;;;6.96;100.00;100682.28;5071326;28;20068;-76
2022/04/05 02:15:10;;;;;;;44.92;13.52;;;;;;;7.00;100.00;100686.38;5088833;28;20126;-76
2022/04/05 02:17:36;;;;;;;44.10;12.73;;;;;;;7.01;100.00;100693.34;5089487;28;20089;-76
2022/04/05 02:20:02;;;;;;;33.47;13.27;;;;;;;7.02;100.00;100695.03;5089562;28;20425;-77
2022/04/05 02:22:28;;;;;;;43.75;14.00;;;;;;;7.05;100.00;100686.84;5088928;28;20085;-76
2022/04/05 02:24:53;;;;;;;35.88;13.63;;;;;;;7.09;100.00;100683.97;5089497;28;20040;-76
2022/04/05 02:27:18;;;;;;;35.10;13.50;;;;;;;7.06;100.00;100688.53;5088866;28;20028;-76
2022/04/05 02:29:44;;;;;;;29.52;13.63;;;;;;;7.11;100.00;100684.69;5089356;28;20036;-76
2022/04/05 02:32:09;;;;;;;27.58;14.00;;;;;;;7.12;100.00;100684.59;5071076;28;20114;-78
2022/04/05 02:34:35;;;;;;;38.15;14.23;;;;;;;7.14;100.00;100684.47;5089988;28;20044;-76
2022/04/05 02:37:00;;;;;;;31.15;13.50;;;;;;;7.13;100.00;100678.31;5089549;28;20067;-77
2022/04/05 02:39:26;;;;;;;28.33;13.52;;;;;;;7.16;100.00;100682.53;5070647;28;20085;-75
2022/04/05 02:41:51;;;;;;;30.77;13.73;;;;;;;7.17;100.00;100678.91;5089309;28;20050;-75
2022/04/05 02:44:16;;;;;;;27.70;13.85;;;;;;;7.19;100.00;100682.28;5088605;28;20492;-76
2022/04/05 02:46:42;;;;;;;24.10;12.90;;;;;;;7.23;100.00;100681.91;5054024;28;20031;-76
2022/04/05 02:49:08;;;;;;;22.65;12.32;;;;;;;7.24;100.00;100675.66;5089362;28;20447;-75
2022/04/05 02:51:34;;;;;;;24.20;13.63;;;;;;;7.24;100.00;100675.66;5088857;28;20084;-76
2022/04/05 02:54:00;;;;;;;27.67;13.63;;;;;;;7.24;100.00;100685.41;5070917;28;20073;-76
2022/04/05 02:56:25;;;;;;;31.35;13.10;;;;;;;7.26;100.00;100675.53;5088970;28;20449;-76
2022/04/05 02:58:50;;;;;;;24.50;13.18;;;;;;;7.29;100.00;100671.81;5088997;28;20035;-75
2022/04/05 03:01:16;;;;;;;23.52;13.18;;;;;;;7.30;100.00;100677.00;5074381;28;20039;-75
2022/04/05 03:03:41;;;;;;;24.75;13.27;;;;;;;7.31;100.00;100673.34;5078998;28;20032;-76
2022/04/05 03:06:07;;;;;;;19.15;12.40;;;;;;;7.32;100.00;100667.13;5097396;28;20032;-75
2022/04/05 03:08:33;;;;;;;26.60;13.30;;;;;;;7.36;100.00;100678.28;5097568;28;20453;-76
2022/04/05 03:10:58;;;;;;;29.25;13.23;;;;;;;7.36;100.00;100680.94;5097260;28;20034;-75
2022/04/05 03:13:24;;;;;;;26.95;13.02;;;;;;;7.36;100.00;100673.00;5097152;28;20117;-75
2022/04/05 03:15:49;;;;;;;22.00;13.00;;;;;;;7.38;100.00;100679.84;5079035;28;20040;-75
2022/04/05 03:18:14;;;;;;;26.95;12.57;;;;;;;7.37;100.00;100670.22;5097285;28;20032;-75
2022/04/05 03:20:40;;;;;;;35.42;13.55;;;;;;;7.35;100.00;100666.03;5097149;28;20039;-75
2022/04/05 03:23:07;;;;;;;26.05;12.43;;;;;;;7.34;100.00;100670.47;5097306;28;20031;-75
2022/04/05 03:25:32;;;;;;;31.40;14.23;;;;;;;7.32;100.00;100672.41;5079036;28;20029;-75
2022/04/05 03:28:02;;;;;;;29.50;12.70;;;;;;;7.34;100.00;100675.75;5097258;28;20115;-76
2022/04/05 03:30:28;;;;;;;29.50;12.55;;;;;;;7.34;100.00;100659.88;5097667;28;20119;-75
2022/04/05 03:32:54;;;;;;;24.35;13.55;;;;;;;7.35;100.00;100673.97;5079115;28;20040;-75
2022/04/05 03:35:19;;;;;;;28.92;13.55;;;;;;;7.35;100.00;100673.97;5097204;28;20093;-75
2022/04/05 03:37:45;;;;;;;31.33;13.13;;;;;;;7.35;100.00;100664.22;5099503;28;20091;-76
2022/04/05 03:40:12;;;;;;;27.67;13.88;;;;;;;7.33;100.00;100652.94;5101365;28;20063;-75
2022/04/05 03:42:37;;;;;;;27.70;14.23;;;;;;;7.35;100.00;100658.94;5098321;28;20128;-77
2022/04/05 03:45:03;;;;;;;29.67;13.80;;;;;;;7.36;100.00;100660.63;5063650;28;20044;-76
2022/04/05 03:47:30;;;;;;;32.45;13.82;;;;;;;7.38;100.00;100660.50;5098188;28;20024;-76
2022/04/05 03:49:56;;;;;;;33.75;12.57;;;;;;;7.40;100.00;100655.91;5082162;28;20032;-76
2022/04/05 03:52:21;;;;;;;29.27;12.60;;;;;;;7.40;100.00;100670.00;5079019;28;20118;-76
2022/04/05 03:54:47;;;;;;;32.65;13.05;;;;;;;7.38;100.00;100661.31;5078507;28;20038;-76
2022/04/05 03:57:13;;;;;;;32.70;11.18;;;;;;;7.40;100.00;100655.91;5078694;28;20036;-76
2022/04/05 03:59:38;;;;;;;28.42;11.35;;;;;;;7.41;100.00;100649.66;5097021;28;20039;-76
2022/04/05 04:02:04;;;;;;;31.67;11.00;;;;;;;7.39;100.00;100657.72;5097589;28;20123;-77
2022/04/05 04:04:31;;;;;;;25.40;10.32;;;;;;;7.39;100.00;100657.72;5098450;28;20036;-76
2022/04/05 04:06:56;;;;;;;33.15;11.40;;;;;;;7.43;100.00;100652.19;5099175;28;20119;-77
2022/04/05 04:09:22;;;;;;;25.10;9.80;;;;;;;7.44;100.00;100660.00;5082147;28;20028;-76
2022/04/05 04:11:48;;;;;;;31.92;8.95;;;;;;;7.48;100.00;100657.94;5084635;28;20032;-76
2022/04/05 04:14:14;;;;;;;24.70;8.93;;;;;;;7.47;100.00;100667.69;5081013;28;20095;-76
2022/04/05 04:16:39;;;;;;;34.05;9.98;;;;;;;7.46;100.00;100651.94;5080196;28;20026;-77
2022/04/05 04:19:05;;;;;;;20.60;9.05;;;;;;;7.49;100.00;100646.38;5096088;28;20032;-76
2022/04/05 04:21:30;;;;;;;25.05;9.50;;;;;;;7.48;100.00;100650.00;5096320;28;20036;-77
2022/04/05 04:23:56;;;;;;;31.70;9.77;;;;;;;7.49;100.00;100651.69;5044644;28;20028;-76
2022/04/05 04:26:22;;;;;;;28.38;9.48;;;;;;;7.50;100.00;100651.56;5095921;28;20032;-75
2022/04/05 04:28:50;;;;;;;23.10;8.73;;;;;;;7.52;100.00;100649.63;5096118;28;20480;-75
2022/04/05 04:31:16;;;;;;;26.90;9.82;;;;;;;7.52;100.00;100652.25;5095459;28;20032;-76
2022/04/05 04:33:41;;;;;;;25.08;9.40;;;;;;;7.56;100.00;100658.16;5077735;28;20047;-76
2022/04/05 04:36:07;;;;;;;21.63;8.63;;;;;;;7.57;100.00;100663.34;5096383;28;20111;-75
2022/04/05 04:38:32;;;;;;;26.35;9.15;;;;;;;7.57;100.00;100650.09;5095184;28;20073;-76
2022/04/05 04:40:57;;;;;;;20.95;8.88;;;;;;;7.56;100.00;100655.53;5096055;28;20055;-77
2022/04/05 04:43:24;;;;;;;25.27;9.85;;;;;;;7.58;100.00;100656.22;5077162;28;20357;-76
2022/04/05 04:45:50;;;;;;;27.25;8.25;;;;;;;7.57;100.00;100660.69;5096024;28;20129;-76
2022/04/05 04:48:15;;;;;;;25.15;9.05;;;;;;;7.58;100.00;100670.34;5095100;28;20039;-76
2022/04/05 04:50:41;;;;;;;31.67;8.65;;;;;;;7.63;100.00;100654.06;5095394;28;20433;-76
2022/04/05 04:53:07;;;;;;;29.95;9.05;;;;;;;7.62;100.00;100659.50;5095915;28;20054;-77
2022/04/05 04:55:32;;;;;;;20.77;7.97;;;;;;;7.64;100.00;100654.91;5095265;28;20107;-77
2022/04/05 04:57:58;;;;;;;19.98;7.97;;;;;;;7.70;100.00;100663.19;5095503;28;20448;-76
2022/04/05 05:00:24;;;;;;;21.80;8.15;;;;;;;7.68;100.00;100661.63;5077275;28;20036;-76
2022/04/05 05:02:51;;;;;;;16.58;8.13;;;;;;;7.67;100.00;100663.41;5095369;28;20032;-77
2022/04/05 05:05:18;;;;;;;21.95;9.07;;;;;;;7.70;100.00;100660.56;5095140;28;20464;-76
2022/04/05 05:07:44;;;;;;;20.83;8.45;;;;;;;7.74;100.00;100659.31;5095316;28;20062;-76
2022/04/05 05:10:11;;;;;;;21.83;8.02;;;;;;;7.74;100.00;100672.56;5077106;28;20024;-76
2022/04/05 05:12:38;;;;;;;22.98;8.07;;;;;;;7.81;100.00;100672.06;5094979;28;20114;-77
2022/04/05 05:15:04;;;;;;;20.70;8.15;;;;;;;7.80;100.00;100665.94;5094966;28;20031;-78
2022/04/05 05:17:29;;;;;;;26.17;8.02;;;;;;;7.79;100.00;100658.94;5094779;28;20042;-75
2022/04/05 05:19:55;;;;;;;26.05;7.63;;;;;;;7.82;100.00;100687.00;5094828;28;20127;-75
2022/04/05 05:22:20;;;;;;;23.83;8.18;;;;;;;7.83;100.00;100673.63;5094665;28;20070;-76
2022/04/05 05:24:45;;;;;;;22.05;7.18;;;;;;;7.84;100.00;100671.84;5094737;28;20032;-78
2022/04/05 05:27:13;;;;;;;19.55;7.15;;;;;;;7.84;100.00;100677.97;5094621;28;20051;-76
2022/04/05 05:29:38;;;;;;;19.75;6.82;;;;;;;7.87;100.00;100668.94;5094425;28;20067;-76
2022/04/05 05:32:04;;;;;;;19.90;7.63;;;;;;;7.86;100.00;100678.66;5094759;28;20064;-74
2022/04/05 05:34:29;;;;;;;20.65;7.60;;;;;;;7.86;100.00;100665.41;5075738;28;20051;-74
2022/04/05 05:36:55;;;;;;;16.55;7.65;;;;;;;7.90;100.00;100676.63;5094584;28;20086;-77
2022/04/05 05:39:20;;;;;;;16.98;7.32;;;;;;;7.91;100.00;100663.25;5094083;28;20032;-76
2022/04/05 05:41:47;;;;;;;18.40;7.25;;;;;;;7.93;100.00;100668.44;5075826;28;20032;-77
2022/04/05 05:44:12;;;;;;;15.18;7.63;;;;;;;7.97;100.00;100669.00;5075731;28;20036;-76
2022/04/05 05:46:38;;;;;;;27.50;8.13;;;;;;;7.94;100.00;100673.59;5094060;28;20039;-77
2022/04/05 05:49:03;;;;;;;19.67;7.72;;;;;;;7.98;100.00;100676.00;5094157;28;20035;-76
2022/04/05 05:51:28;;;;;;;21.23;7.15;;;;;;;7.99;100.00;100683.81;5093968;28;20032;-77
2022/04/05 05:53:54;;;;;;;16.83;6.57;;;;;;;8.00;100.00;100684.63;5076336;28;20032;-77
2022/04/05 05:56:19;;;;;;;18.58;6.75;;;;;;;7.98;100.00;100681.28;5094386;28;20097;-75
2022/04/05 05:58:46;;;;;;;22.58;7.38;;;;;;;7.99;100.00;100681.16;5075965;28;20036;-76
2022/04/05 06:01:11;;;;;;;12.23;5.82;;;;;;;8.05;100.00;100688.59;5093968;28;20039;-76
2022/04/05 06:03:37;;;;;;;19.38;6.50;;;;;;;8.10;100.00;100683.75;5093584;28;20039;-75
2022/04/05 06:06:02;;;;;;;12.82;5.72;;;;;;;8.14;100.00;100679.06;5093810;28;20503;-79
2022/04/05 06:08:27;;;;;;;16.17;6.20;;;;;;;8.18;100.00;100692.88;5094242;28;20118;-78
2022/04/05 06:10:53;;;;;;;17.05;5.75;;;;;;;8.21;100.00;100687.31;5093796;28;20035;-80
2022/04/05 06:13:18;;;;;;;19.05;6.07;;;;;;;8.26;100.00;100685.97;5093742;28;20110;-77
2022/04/05 06:15:44;;;;;;;13.38;5.22;;;;;;;8.27;100.00;100692.97;5094377;28;20044;-76
2022/04/05 06:18:09;;;;;;;17.20;6.10;;;;;;;8.30;100.00;100691.88;5093840;28;20478;-79
2022/04/05 06:20:34;;;;;;;16.88;5.38;;;;;;;8.32;100.00;100692.59;5093761;28;20064;-76
2022/04/05 06:23:03;;;;;;;13.93;5.03;;;;;;;8.31;100.00;100698.84;5094406;28;20082;-77
2022/04/05 06:25:35;;;;;;;14.77;5.97;;;;;;;8.28;100.00;100694.66;5094379;28;20028;-79
2022/04/05 06:28:03;;;;;;;14.35;4.88;;;;;;;8.26;100.00;100690.44;5093466;28;20035;-78
2022/04/05 06:30:30;;;;;;;14.15;4.38;;;;;;;8.25;100.00;100699.34;5093661;28;20036;-79
2022/04/05 06:33:13;;;;;;;12.27;5.15;;;;;;;8.23;100.00;100693.34;5093891;28;20441;-78
2022/04/05 06:35:41;;;;;;;13.15;4.78;;;;;;;8.25;100.00;100699.34;5093816;28;20059;-76
2022/04/05 06:38:06;;;;;;;16.23;5.38;;;;;;;8.30;100.00;100700.66;5093257;28;20034;-78
2022/04/05 06:40:32;;;;;;;18.77;5.22;;;;;;;8.36;100.00;100701.13;5093280;28;20035;-77
2022/04/05 06:42:58;;;;;;;17.02;5.40;;;;;;;8.40;100.00;100700.72;5094007;28;20063;-78
2022/04/05 06:45:24;;;;;;;12.68;4.40;;;;;;;8.51;100.00;100693.72;5075461;28;20097;-76
2022/04/05 06:47:50;;;;;;;13.48;4.65;;;;;;;8.59;100.00;100702.72;5093528;28;20070;-76
2022/04/05 06:50:20;;;;;;;11.68;3.75;;;;;;;8.69;100.00;100715.19;5093506;28;20044;-76
2022/04/05 06:52:46;;;;;;;14.18;4.90;;;;;;;8.75;100.00;100710.22;5059046;28;20063;-78
2022/04/05 06:55:12;;;;;;;14.75;4.40;;;;;;;8.76;99.98;100709.25;5094209;28;20032;-76
2022/04/05 06:57:38;;;;;;;16.08;4.53;;;;;;;8.78;99.78;100709.13;5075580;28;20505;-77
2022/04/05 07:00:06;;;;;;;18.73;4.85;;;;;;;8.76;99.97;100716.34;5093535;28;20059;-77
2022/04/05 07:02:32;;;;;;;10.82;4.32;;;;;;;8.74;99.72;100726.25;5075493;28;20492;-77
2022/04/05 07:04:57;;;;;;;14.43;4.10;;;;;;;8.79;99.84;100724.91;5093274;28;20046;-78
2022/04/05 07:07:23;;;;;;;14.88;4.25;;;;;;;8.86;99.36;100722.56;5093004;28;20063;-77
2022/04/05 07:09:48;;;;;;;7.90;3.80;;;;;;;8.93;99.03;100715.75;5093112;28;20127;-78
2022/04/05 07:12:14;;;;;;;17.13;4.55;;;;;;;9.00;98.00;100726.69;5093923;28;20464;-76
2022/04/05 07:14:39;;;;;;;17.65;4.22;;;;;;;9.05;97.81;100721.00;5094106;28;20518;-77
2022/04/05 07:17:05;;;;;;;13.88;4.05;;;;;;;9.09;97.48;100722.41;5058316;28;20032;-77
2022/04/05 07:19:30;;;;;;;12.13;4.53;;;;;;;9.15;97.50;100729.81;5093259;28;20384;-78
2022/04/05 07:21:55;;;;;;;9.65;3.83;;;;;;;9.23;96.93;100726.53;5093357;28;20028;-78
2022/04/05 07:24:21;;;;;;;14.90;3.88;;;;;;;9.25;96.03;100727.22;5093952;28;20472;-77
2022/04/05 07:26:46;;;;;;;11.43;4.55;;;;;;;9.27;95.90;100728.78;5093385;28;20028;-76
2022/04/05 07:29:12;;;;;;;17.48;4.68;;;;;;;9.14;95.68;100721.03;5093773;28;20115;-77
2022/04/05 07:31:38;;;;;;;12.52;4.05;;;;;;;9.04;96.67;100736.06;5093565;28;20490;-77
2022/04/05 07:34:03;;;;;;;8.70;3.75;;;;;;;8.97;96.94;100725.16;5093033;28;20044;-77
2022/04/05 07:36:30;;;;;;;13.02;4.25;;;;;;;8.94;97.48;100736.03;5093202;28;20038;-78
2022/04/05 07:38:56;;;;;;;14.65;3.97;;;;;;;8.90;97.45;100737.25;5093036;28;20476;-77
2022/04/05 07:41:21;;;;;;;15.07;3.63;;;;;;;8.84;97.94;100729.81;5093318;28;20076;-77
2022/04/05 07:43:46;;;;;;;12.10;4.30;;;;;;;8.78;98.62;100727.69;5075082;28;20047;-78
2022/04/05 07:46:12;;;;;;;14.13;4.45;;;;;;;8.71;99.48;100724.72;5092893;28;20040;-77
2022/04/05 07:48:39;;;;;;;11.85;4.40;;;;;;;8.65;100.00;100725.22;5093184;28;20074;-77
2022/04/05 07:51:04;;;;;;;12.63;4.50;;;;;;;8.67;100.00;100717.13;5079072;28;20040;-78
2022/04/05 07:53:30;;;;;;;12.10;4.45;;;;;;;8.68;100.00;100732.09;5096878;28;20479;-78
2022/04/05 07:55:56;;;;;;;12.43;4.47;;;;;;;8.65;100.00;100714.63;5096519;28;20057;-76
2022/04/05 07:58:22;;;;;;;15.85;4.68;;;;;;;8.68;100.00;100732.09;5096770;28;20036;-77
2022/04/05 08:00:48;;;;;;;17.70;4.78;;;;;;;8.74;100.00;100729.75;5096528;28;20089;-77
2022/04/05 08:03:13;;;;;;;11.90;4.25;;;;;;;8.83;100.00;100726.31;5096483;28;20040;-77
2022/04/05 08:05:41;;;;;;;11.25;4.50;;;;;;;8.92;99.27;100734.47;5096379;28;20032;-76
2022/04/05 08:08:08;;;;;;;10.27;4.10;;;;;;;8.98;99.30;100731.28;5096772;28;20094;-77
2022/04/05 08:10:34;;;;;;;13.32;4.43;;;;;;;9.03;98.45;100728.25;5096410;28;20067;-77
2022/04/05 08:13:00;;;;;;;11.43;3.92;;;;;;;9.10;98.36;100724.09;5097442;28;20039;-77
2022/04/05 08:15:25;;;;;;;12.07;4.18;;;;;;;9.07;97.75;100727.84;5080711;28;20044;-77
2022/04/05 08:17:51;;;;;;;13.15;4.15;;;;;;;9.04;98.06;100730.75;5081200;28;20036;-78
2022/04/05 08:20:17;;;;;;;18.38;4.40;;;;;;;8.99;98.41;100736.47;5081285;28;20460;-77
2022/04/05 08:22:43;;;;;;;10.23;4.03;;;;;;;8.97;98.77;100734.91;5098058;28;20158;-78
2022/04/05 08:25:10;;;;;;;16.58;3.90;;;;;;;8.94;98.86;100737.81;5080569;28;20103;-77
2022/04/05 08:27:37;;;;;;;16.42;3.90;;;;;;;8.94;99.26;100743.13;5098173;28;20119;-78
2022/04/05 08:30:05;;;;;;;14.63;4.22;;;;;;;8.96;99.23;100733.25;5096052;28;20545;-78
2022/04/05 08:32:30;;;;;;;12.93;4.30;;;;;;;8.97;98.68;100749.03;5096394;28;20028;-78
2022/04/05 08:34:56;;;;;;;12.98;4.20;;;;;;;9.02;98.46;100732.72;5078167;28;20063;-79
2022/04/05 08:37:24;;;;;;;13.48;3.63;;;;;;;9.11;98.15;100737.22;5096100;28;20142;-77
2022/04/05 08:39:49;;;;;;;9.50;3.67;;;;;;;9.24;97.85;100739.69;5078619;28;20452;-78
2022/04/05 08:42:15;;;;;;;12.25;3.97;;;;;;;9.34;97.54;100737.91;5095615;28;20035;-78
2022/04/05 08:44:44;;;;;;;13.98;3.67;;;;;;;9.48;95.51;100755.28;5077655;28;20036;-76
2022/04/05 08:47:12;;;;;;;9.43;3.85;;;;;;;9.58;95.15;100754.47;5095937;28;20024;-76
2022/04/05 08:49:38;;;;;;;12.20;4.00;;;;;;;9.64;95.00;100757.44;5095712;28;20081;-78
2022/04/05 08:52:04;;;;;;;10.15;3.95;;;;;;;9.64;94.31;100751.28;5095384;28;20035;-76
2022/04/05 08:54:29;;;;;;;13.18;3.80;;;;;;;9.61;94.40;100746.22;5095726;28;20392;-76
2022/04/05 08:56:55;;;;;;;12.55;3.63;;;;;;;9.52;94.87;100762.00;5095329;28;20028;-77
2022/04/05 08:59:20;;;;;;;13.50;3.60;;;;;;;9.54;94.98;100756.56;5077187;28;20556;-78
2022/04/05 09:01:45;;;;;;;13.80;3.83;;;;;;;9.54;95.05;100761.88;5095265;28;20024;-78
2022/04/05 09:04:11;;;;;;;15.30;4.22;;;;;;;9.61;94.56;100759.50;5077282;28;20396;-77
2022/04/05 09:06:37;;;;;;;12.48;3.83;;;;;;;9.60;94.12;100758.69;5076812;28;20032;-77
2022/04/05 09:09:09;;;;;;;11.50;4.18;;;;;;;9.63;93.57;100763.72;5077104;28;20039;-76
2022/04/05 09:11:36;;;;;;;16.65;4.20;;;;;;;9.59;93.68;100758.81;5095190;28;20032;-77
2022/04/05 09:14:03;;;;;;;11.77;4.20;;;;;;;9.65;93.89;100755.63;5096223;28;20043;-76
2022/04/05 09:16:32;;;;;;;7.78;3.50;;;;;;;9.71;93.77;100761.22;5077053;28;20028;-77
2022/04/05 09:18:59;;;;;;;14.98;3.80;;;;;;;9.86;93.62;100753.72;5095983;28;20020;-77
2022/04/05 09:21:24;;;;;;;10.85;3.45;;;;;;;10.03;92.39;100756.69;5077979;28;20469;-77
2022/04/05 09:23:52;;;;;;;11.02;3.42;;;;;;;10.19;91.19;100767.59;5096365;28;20032;-77
2022/04/05 09:26:19;;;;;;;13.07;3.88;;;;;;;10.31;90.74;100770.16;5099493;28;20047;-77
2022/04/05 09:28:46;;;;;;;10.50;4.07;;;;;;;10.40;90.01;100766.69;5103409;28;20125;-76
2022/04/05 09:31:17;;;;;;;9.82;3.50;;;;;;;10.57;88.97;100775.81;5086655;28;20032;-77
2022/04/05 09:34:03;;;;;;;;;;;;;;;10.71;88.76;100769.19;5095845;28;20480;-75
2022/04/05 09:36:34;;;;;;;12.07;3.22;;;;;;;10.81;87.74;100778.03;5094960;28;19912;-76
2022/04/05 09:39:20;;;;;;;13.93;3.40;;;;;;;10.75;87.21;100789.22;5076550;28;20036;-76
2022/04/05 09:42:09;;;;;;;12.77;3.60;;;;;;;10.54;88.91;100773.44;5094514;28;20116;-76
2022/04/05 09:44:37;;;;;;;10.48;3.15;;;;;;;10.42;88.83;100772.72;5082070;28;20064;-76
2022/04/05 09:47:04;;;;;;;10.20;3.15;;;;;;;10.33;88.63;100774.41;5094262;28;20028;-78
2022/04/05 09:49:36;;;;;;;7.53;2.95;;;;;;;10.20;89.12;100779.94;5094421;28;20024;-77
2022/04/05 09:52:02;;;;;;;12.23;3.97;;;;;;;10.17;90.03;100782.03;5094273;28;20036;-77
2022/04/05 09:54:29;;;;;;;13.57;3.10;;;;;;;10.11;89.93;100769.31;5094241;28;20034;-77
2022/04/05 09:57:07;;;;;;;9.45;3.25;;;;;;;10.22;90.55;100785.13;5094238;28;20489;-77
2022/04/05 09:59:43;;;;;;;12.57;3.10;;;;;;;10.19;90.53;100782.72;5094143;28;20020;-77
2022/04/05 10:02:14;;;;;;;11.95;3.22;;;;;;;10.14;90.21;100771.69;5094062;28;20024;-77
2022/04/05 10:05:00;;;;;;;10.32;3.45;;;;;;;10.13;90.54;100764.69;5094132;28;20028;-78
2022/04/05 10:07:30;;;;;;;9.80;3.55;;;;;;;10.30;91.56;100779.09;5094177;28;20024;-77
2022/04/05 10:09:57;;;;;;;10.18;3.10;;;;;;;10.48;90.22;100776.63;5093684;28;20032;-77
2022/04/05 10:12:23;;;;;;;12.43;3.85;;;;;;;10.72;89.22;100778.88;5093306;28;20036;-77
2022/04/05 10:14:49;;;;;;;13.07;3.35;;;;;;;11.01;90.45;100784.13;5076006;28;20131;-77
2022/04/05 10:17:15;;;;;;;11.75;3.85;;;;;;;11.47;87.55;100784.28;5093845;28;20039;-77
2022/04/05 10:19:45;;;;;;;12.45;3.47;;;;;;;11.92;83.97;100769.34;5094237;28;20032;-77
2022/04/05 10:22:12;;;;;;;10.48;3.28;;;;;;;12.53;81.56;100773.16;5093856;28;20028;-77
2022/04/05 10:24:39;;;;;;;13.73;3.67;;;;;;;13.06;79.44;100782.06;5075626;28;20038;-77
2022/04/05 10:27:06;;;;;;;9.80;3.25;;;;;;;12.84;77.56;100781.59;5093696;28;20032;-78
2022/04/05 10:29:33;;;;;;;12.60;3.42;;;;;;;12.51;78.66;100773.31;5093937;28;20044;-77
2022/04/05 10:32:19;;;;;;;10.65;3.42;;;;;;;12.10;80.44;100777.41;5093344;28;20484;-77
2022/04/05 10:34:53;;;;;;;9.55;3.30;;;;;;;12.08;80.60;100782.06;5075390;28;20221;-77
2022/04/05 10:37:36;;;;;;;12.32;3.85;;;;;;;11.87;81.37;100777.78;5093253;28;20042;-77
2022/04/05 10:40:01;;;;;;;13.68;4.65;;;;;;;11.71;82.46;100783.75;5094428;28;20490;-77
2022/04/05 10:42:53;;;;;;;11.25;3.53;;;;;;;11.78;81.50;100781.34;5093188;28;20059;-76
2022/04/05 10:45:18;;;;;;;8.98;3.40;;;;;;;11.49;82.83;100784.97;5093879;28;20103;-77
2022/04/05 10:48:20;;;;;;;13.02;3.80;;;;;;;11.53;84.21;100770.38;5093488;28;20096;-76
2022/04/05 10:51:05;;;;;;;13.10;3.70;;;;;;;11.61;83.45;100778.50;5086776;28;20040;-76
2022/04/05 10:53:35;;;;;;;12.93;3.60;;;;;;;11.83;82.46;100782.56;5093512;28;20074;-76
2022/04/05 10:56:03;;;;;;;8.73;3.45;;;;;;;11.90;81.20;100782.81;5093928;28;20032;-76
2022/04/05 10:58:33;;;;;;;8.38;3.63;;;;;;;11.81;81.62;100771.22;5093337;28;20032;-76
2022/04/05 11:01:19;;;;;;;11.43;3.47;;;;;;;11.74;82.04;100774.63;5093969;28;20070;-76
2022/04/05 11:04:16;;;;;;;10.38;3.15;;;;;;;11.85;81.79;100774.41;5093420;28;20035;-76
2022/04/05 11:07:02;;;;;;;10.43;3.60;;;;;;;11.82;81.92;100772.91;5093244;28;20024;-75
2022/04/05 11:09:34;;;;;;;10.93;3.92;;;;;;;12.10;81.19;100772.06;5093425;28;20103;-75
2022/04/05 11:12:08;;;;;;;13.07;3.65;;;;;;;11.90;81.18;100764.16;5093276;28;20024;-75
2022/04/05 11:14:35;;;;;;;10.80;4.00;;;;;;;11.86;82.28;100772.63;5093199;28;20036;-76
2022/04/05 11:17:06;;;;;;;7.47;3.50;;;;;;;12.04;83.15;100765.50;5092977;28;20034;-76
2022/04/05 11:19:36;;;;;;;8.63;3.80;;;;;;;12.17;81.29;100765.16;5093764;28;20047;-76